aviador You're here:

PADM Decoded Metar

MARSHALL in AK, USA
Report Time2017-11-18 09:56:00
UTC Time2017-11-18 10:10:56
Flight Rules mvfr MVFR
WindCalm
Visibility9999 m
Phenomena:N/A
Clouds:Overcast 029 Hf
Expected CloudBase > 1,200 ft AGL from Temp-Dew spread
Ceiling2,900 ft
Temp-3°C (ISA -18)
Dew Point-6°C (80% RH)
AAT-5.7°C
QNH1025 hPa
Density Alt-2,444 ft
Elevation102 ft
Report Wrong Elevation
Raw Report
PADM 180956Z AUTO 00000KT 10SM OVC029 M03/M06 A3027 RMK AO2 SLP258
T10331061 FZRANO=

Extra information for PADM:More info

Metar Taf Metar & Taf Last 4 Metars F.Rules Stats Wind Profile Meteogram Temp Stats Airport Information Weather charts Add Link Nearby VenuesMetar ALERT Operation Metar Decoded Social comments

AIRNAV info for PADM